Time;durP1;ratioP1;P1;durP2;ratioP2;P2;SDS_P1;SDS_P2;PMS_P1;PMS_P2;Temp;Humidity;BMP_temperature;BMP_pressure;BME280_temperature;BME280_humidity;BME280_pressure;Samples;Min_cycle;Max_cycle;Signal;HPM_P1;HPM_P2
2023/09/13 00:01:40;;;;;;;;;;;;;;;23.00;49.21;95503.13;10514024;28;1902;-65
2023/09/13 00:06:40;;;;;;;;;;;;;;;22.98;50.35;95502.63;10529874;28;1888;-65
2023/09/13 00:11:40;;;;;;;;;;;;;;;22.93;50.26;95487.66;10513370;28;2064;-65
2023/09/13 00:16:41;;;;;;;;;;;;;;;22.99;51.32;95498.88;10516148;28;1993;-65
2023/09/13 00:21:42;;;;;;;;;;;;;;;23.11;51.99;95499.19;10489543;28;1902;-65
2023/09/13 00:26:42;;;;;;;;;;;;;;;23.14;52.27;95503.88;10530298;28;2575;-64
2023/09/13 00:31:43;;;;;;;;;;;;;;;23.10;51.63;95508.19;10534480;28;1846;-65
2023/09/13 00:36:43;;;;;;;;;;;;;;;22.88;49.80;95508.09;10494621;28;1841;-65
2023/09/13 00:41:43;;;;;;;;;;;;;;;22.92;49.70;95511.69;10495700;28;1914;-66
2023/09/13 00:46:43;;;;;;;;;;;;;;;22.88;49.86;95503.59;10529114;28;1907;-65
2023/09/13 00:51:44;;;;;;;;;;;;;;;22.85;49.81;95500.75;10505650;28;2280;-64
2023/09/13 00:56:44;;;;;;;;;;;;;;;22.79;49.88;95509.88;10494899;28;1975;-65
2023/09/13 01:01:44;;;;;;;;;;;;;;;22.78;49.45;95508.28;10530190;28;1975;-64
2023/09/13 01:06:45;;;;;;;;;;;;;;;22.69;49.58;95507.41;10498903;28;2052;-64
2023/09/13 01:11:45;;;;;;;;;;;;;;;22.65;49.60;95515.91;10508138;28;2475;-64
2023/09/13 01:16:49;;;;;;;;;;;;;;;22.59;49.61;95514.44;10538524;27;4997;-64
2023/09/13 01:22:05;;;;;;;;;;;;;;;22.53;50.01;95518.22;10507751;28;2007;-64
2023/09/13 01:27:23;;;;;;;;;;;;;;;22.58;50.34;95518.16;10497537;28;2084;-64
2023/09/13 01:32:23;;;;;;;;;;;;;;;22.63;50.05;95512.78;10526282;28;2038;-64
2023/09/13 01:37:24;;;;;;;;;;;;;;;22.63;49.93;95506.69;10524694;28;2099;-64
2023/09/13 01:42:24;;;;;;;;;;;;;;;22.63;49.83;95506.69;10524077;28;1923;-64
2023/09/13 01:47:24;;;;;;;;;;;;;;;22.57;49.87;95516.56;10481981;28;1966;-64
2023/09/13 01:52:25;;;;;;;;;;;;;;;22.60;49.63;95516.00;10534877;27;2034;-64
2023/09/13 01:57:25;;;;;;;;;;;;;;;22.60;49.76;95513.38;10531862;28;2309;-64
2023/09/13 02:02:25;;;;;;;;;;;;;;;22.62;49.82;95513.06;10499192;28;2032;-64
2023/09/13 02:07:25;;;;;;;;;;;;;;;22.61;49.62;95511.50;10511450;28;2202;-65
2023/09/13 02:12:26;;;;;;;;;;;;;;;22.60;49.60;95525.78;10493960;28;2443;-65
2023/09/13 02:17:26;;;;;;;;;;;;;;;22.54;49.33;95533.00;10528145;28;5149;-65
2023/09/13 02:22:26;;;;;;;;;;;;;;;22.52;49.46;95543.03;10527925;28;2090;-65
2023/09/13 02:27:26;;;;;;;;;;;;;;;22.51;49.46;95548.63;10523070;28;2012;-64
2023/09/13 02:32:27;;;;;;;;;;;;;;;22.47;49.40;95555.56;10515072;28;1980;-65
2023/09/13 02:37:28;;;;;;;;;;;;;;;22.40;49.68;95563.84;10523470;28;2004;-65
2023/09/13 02:42:28;;;;;;;;;;;;;;;22.36;49.44;95570.78;10515133;28;1946;-65
2023/09/13 02:47:28;;;;;;;;;;;;;;;22.31;49.58;95576.16;10525642;27;1965;-65
2023/09/13 02:52:29;;;;;;;;;;;;;;;22.26;49.77;95576.22;10526951;28;1983;-64
2023/09/13 02:57:30;;;;;;;;;;;;;;;22.24;50.14;95573.09;10496627;28;2467;-65
2023/09/13 03:02:30;;;;;;;;;;;;;;;22.25;50.01;95579.16;10528255;27;1931;-64
2023/09/13 03:07:31;;;;;;;;;;;;;;;22.18;50.34;95571.63;10511230;28;1967;-65
2023/09/13 03:12:31;;;;;;;;;;;;;;;22.19;50.35;95572.41;10518916;28;2164;-65
2023/09/13 03:17:31;;;;;;;;;;;;;;;22.18;50.54;95579.53;10515232;28;1941;-65
2023/09/13 03:22:32;;;;;;;;;;;;;;;22.17;50.75;95570.06;10525385;28;1987;-65
2023/09/13 03:27:32;;;;;;;;;;;;;;;22.20;50.75;95555.47;10507099;28;1939;-65
2023/09/13 03:32:32;;;;;;;;;;;;;;;22.20;50.50;95560.75;10510185;28;7410;-65
2023/09/13 03:37:35;;;;;;;;;;;;;;;22.18;50.69;95560.25;10527867;28;5919;-64
2023/09/13 03:42:36;;;;;;;;;;;;;;;22.14;51.17;95557.41;10517291;28;5390;-64
2023/09/13 03:47:36;;;;;;;;;;;;;;;22.14;50.99;95552.13;10478273;28;1978;-65
2023/09/13 03:52:36;;;;;;;;;;;;;;;22.14;50.84;95557.41;10494095;28;3838;-64
2023/09/13 03:57:36;;;;;;;;;;;;;;;22.15;51.06;95559.00;10497755;28;2003;-64
2023/09/13 04:02:37;;;;;;;;;;;;;;;22.15;51.35;95559.00;10506388;28;2202;-64
2023/09/13 04:07:37;;;;;;;;;;;;;;;22.14;51.40;95560.06;10493686;28;2867;-65
2023/09/13 04:12:37;;;;;;;;;;;;;;;22.15;51.52;95556.34;10529791;28;1981;-65
2023/09/13 04:17:37;;;;;;;;;;;;;;;22.17;51.35;95559.50;10496259;28;2148;-65
2023/09/13 04:22:38;;;;;;;;;;;;;;;22.20;51.54;95561.53;10513125;28;2537;-65
2023/09/13 04:27:38;;;;;;;;;;;;;;;22.22;51.34;95577.88;10512011;28;1948;-65
2023/09/13 04:32:39;;;;;;;;;;;;;;;22.23;51.54;95576.03;10476927;28;2216;-65
2023/09/13 04:37:39;;;;;;;;;;;;;;;22.22;51.89;95579.72;10507259;28;2010;-65
2023/09/13 04:42:49;;;;;;;;;;;;;;;22.28;51.83;95584.66;10500134;28;5007;-65
2023/09/13 04:47:50;;;;;;;;;;;;;;;22.28;51.75;95584.66;10534347;28;2017;-65
2023/09/13 04:52:50;;;;;;;;;;;;;;;22.36;52.10;95593.78;10510108;28;1939;-65
2023/09/13 04:57:51;;;;;;;;;;;;;;;22.37;51.78;95593.50;10485069;28;2276;-64
2023/09/13 05:02:51;;;;;;;;;;;;;;;22.37;52.15;95595.34;10521259;28;1960;-65
2023/09/13 05:07:53;;;;;;;;;;;;;;;22.35;52.04;95600.94;10521730;28;2371;-66
2023/09/13 05:12:54;;;;;;;;;;;;;;;22.29;52.34;95612.63;10504208;28;1975;-67
2023/09/13 05:17:54;;;;;;;;;;;;;;;22.32;52.54;95614.69;10513781;28;1967;-66
2023/09/13 05:22:55;;;;;;;;;;;;;;;22.30;52.86;95616.84;10504582;28;1976;-66
2023/09/13 05:27:55;;;;;;;;;;;;;;;22.28;53.17;95611.06;10510331;28;2211;-64
2023/09/13 05:32:56;;;;;;;;;;;;;;;22.28;53.25;95613.69;10512552;28;2023;-65
2023/09/13 05:37:56;;;;;;;;;;;;;;;22.23;53.44;95629.63;10511295;28;2060;-67
2023/09/13 05:42:57;;;;;;;;;;;;;;;22.20;53.90;95630.19;10515297;28;2030;-66
2023/09/13 05:48:04;;;;;;;;;;;;;;;22.26;53.82;95644.09;10531952;28;2050;-66
2023/09/13 05:53:05;;;;;;;;;;;;;;;22.23;54.36;95649.97;10525877;28;2432;-66
2023/09/13 05:58:05;;;;;;;;;;;;;;;22.28;54.89;95641.94;10520904;28;1959;-66
2023/09/13 06:03:05;;;;;;;;;;;;;;;22.29;55.15;95659.38;10503992;28;1973;-66
2023/09/13 06:08:05;;;;;;;;;;;;;;;22.25;56.26;95659.19;10523344;28;2104;-66
2023/09/13 06:13:07;;;;;;;;;;;;;;;22.28;56.56;95658.59;10537000;28;1975;-66
2023/09/13 06:18:07;;;;;;;;;;;;;;;22.32;56.43;95651.66;10503838;28;1970;-66
2023/09/13 06:23:07;;;;;;;;;;;;;;;22.26;57.48;95658.09;10505240;28;1933;-66
2023/09/13 06:28:07;;;;;;;;;;;;;;;22.28;57.62;95655.94;10505850;28;1993;-66
2023/09/13 06:33:08;;;;;;;;;;;;;;;22.27;58.01;95654.41;10540588;28;1817;-66
2023/09/13 06:38:08;;;;;;;;;;;;;;;22.18;58.54;95657.94;10500960;28;2273;-66
2023/09/13 06:43:09;;;;;;;;;;;;;;;22.14;58.39;95673.56;10497153;28;5081;-65
2023/09/13 06:48:09;;;;;;;;;;;;;;;22.21;58.30;95673.22;10507012;28;1820;-67
2023/09/13 06:53:09;;;;;;;;;;;;;;;22.24;58.05;95675.28;10522435;28;1843;-67
2023/09/13 06:58:09;;;;;;;;;;;;;;;22.31;57.74;95684.44;10503138;28;2016;-67
2023/09/13 07:03:10;;;;;;;;;;;;;;;22.42;57.68;95680.56;10504996;28;1847;-66
2023/09/13 07:08:10;;;;;;;;;;;;;;;22.53;57.38;95689.13;10487265;28;2026;-66
2023/09/13 07:13:10;;;;;;;;;;;;;;;22.63;57.21;95689.00;10521623;28;1909;-66
2023/09/13 07:18:11;;;;;;;;;;;;;;;22.71;57.25;95687.56;10513331;28;1910;-66
2023/09/13 07:23:11;;;;;;;;;;;;;;;22.72;57.17;95686.50;10502968;28;2961;-67
2023/09/13 07:28:11;;;;;;;;;;;;;;;22.77;57.12;95686.41;10485937;28;2049;-66
2023/09/13 07:33:11;;;;;;;;;;;;;;;22.83;56.88;95691.34;10482918;28;2067;-65
2023/09/13 07:38:12;;;;;;;;;;;;;;;22.87;57.14;95702.91;10520983;28;2029;-65
2023/09/13 07:43:12;;;;;;;;;;;;;;;22.82;57.32;95710.91;10506531;28;1854;-65
2023/09/13 07:48:12;;;;;;;;;;;;;;;22.86;57.51;95717.19;10516155;28;1826;-66
2023/09/13 07:53:13;;;;;;;;;;;;;;;22.85;57.75;95725.41;10521981;28;1974;-64
2023/09/13 07:58:13;;;;;;;;;;;;;;;22.87;57.33;95721.41;10512773;28;1906;-65
2023/09/13 08:03:13;;;;;;;;;;;;;;;22.88;57.36;95716.88;10510245;28;1924;-65
2023/09/13 08:08:22;;;;;;;;;;;;;;;22.86;57.53;95721.69;10500801;28;2677;-66
2023/09/13 08:13:23;;;;;;;;;;;;;;;22.89;57.45;95726.41;10525519;28;1954;-67
2023/09/13 08:18:23;;;;;;;;;;;;;;;22.81;58.08;95742.91;10514828;28;1969;-66
2023/09/13 08:23:24;;;;;;;;;;;;;;;22.83;57.58;95746.84;10527024;28;1959;-66
2023/09/13 08:28:24;;;;;;;;;;;;;;;22.88;57.65;95751.25;10542166;27;1885;-67
2023/09/13 08:33:24;;;;;;;;;;;;;;;22.98;57.30;95748.47;10501084;28;1922;-66
2023/09/13 08:38:24;;;;;;;;;;;;;;;23.10;57.06;95754.09;10504076;28;1901;-65
2023/09/13 08:43:25;;;;;;;;;;;;;;;23.17;56.77;95760.56;10518471;28;4746;-65
2023/09/13 08:48:25;;;;;;;;;;;;;;;23.23;57.01;95762.06;10525495;28;1862;-66
2023/09/13 08:53:25;;;;;;;;;;;;;;;23.30;56.88;95769.63;10494680;28;2390;-65
2023/09/13 08:58:25;;;;;;;;;;;;;;;23.35;56.74;95774.84;10517718;28;1977;-65
2023/09/13 09:03:26;;;;;;;;;;;;;;;23.40;56.63;95774.75;10514913;28;1869;-65
2023/09/13 09:08:26;;;;;;;;;;;;;;;23.45;56.65;95770.16;10534157;28;1953;-65
2023/09/13 09:13:26;;;;;;;;;;;;;;;23.50;56.46;95761.34;10487950;28;1910;-64
2023/09/13 09:18:27;;;;;;;;;;;;;;;23.53;56.07;95760.00;10498963;28;1956;-64
2023/09/13 09:23:27;;;;;;;;;;;;;;;23.56;56.35;95757.53;10533316;28;2052;-64
2023/09/13 09:28:28;;;;;;;;;;;;;;;23.59;55.96;95756.97;10514640;28;2247;-64
2023/09/13 09:33:28;;;;;;;;;;;;;;;23.62;56.00;95751.09;10518464;28;1903;-65
2023/09/13 09:38:29;;;;;;;;;;;;;;;23.66;55.69;95752.06;10506827;28;2435;-65
2023/09/13 09:43:29;;;;;;;;;;;;;;;23.69;55.63;95746.19;10537937;27;1827;-65
2023/09/13 09:48:29;;;;;;;;;;;;;;;23.71;55.02;95743.25;10515761;28;2143;-65
2023/09/13 09:53:30;;;;;;;;;;;;;;;23.74;55.16;95751.38;10524014;28;1879;-65
2023/09/13 09:58:30;;;;;;;;;;;;;;;23.78;55.26;95752.38;10502675;28;2149;-66
2023/09/13 10:03:34;;;;;;;;;;;;;;;23.82;55.30;95750.69;10538085;27;1899;-64
2023/09/13 10:08:47;;;;;;;;;;;;;;;23.86;55.27;95751.72;10518311;28;1917;-65
2023/09/13 10:13:48;;;;;;;;;;;;;;;23.89;55.19;95756.41;10501176;28;2039;-65
2023/09/13 10:18:50;;;;;;;;;;;;;;;23.89;55.02;95748.44;10534475;28;2060;-64
2023/09/13 10:23:56;;;;;;;;;;;;;;;23.91;54.67;95743.66;10501499;28;2100;-65
2023/09/13 10:28:59;;;;;;;;;;;;;;;23.93;55.00;95749.44;10522457;28;1822;-64
2023/09/13 10:34:00;;;;;;;;;;;;;;;23.93;54.94;95741.50;10490442;28;1836;-65
2023/09/13 10:39:21;;;;;;;;;;;;;;;23.96;54.91;95745.41;10502421;28;2486;-64
2023/09/13 10:44:21;;;;;;;;;;;;;;;23.97;54.67;95731.88;10533631;28;2003;-65
2023/09/13 10:49:23;;;;;;;;;;;;;;;24.00;54.55;95730.50;10510798;28;1897;-60
2023/09/13 10:54:24;;;;;;;;;;;;;;;24.00;54.67;95731.31;10526104;27;1878;-64
2023/09/13 10:59:24;;;;;;;;;;;;;;;24.01;54.64;95726.75;10498967;28;1954;-64
2023/09/13 11:04:25;;;;;;;;;;;;;;;24.02;54.59;95721.19;10514999;28;1943;-65
2023/09/13 11:09:26;;;;;;;;;;;;;;;24.04;54.58;95723.56;10510620;28;1839;-65
2023/09/13 11:14:27;;;;;;;;;;;;;;;24.04;54.62;95727.00;10519691;28;1861;-66
2023/09/13 11:19:27;;;;;;;;;;;;;;;24.05;54.53;95717.97;10510695;28;1922;-64
2023/09/13 11:24:40;;;;;;;;;;;;;;;24.06;54.53;95729.34;10513355;28;2560;-64
2023/09/13 11:29:42;;;;;;;;;;;;;;;24.04;54.36;95753.50;10500611;28;1893;-63
2023/09/13 11:34:42;;;;;;;;;;;;;;;24.02;54.31;95757.47;10497389;28;1879;-64
2023/09/13 11:39:42;;;;;;;;;;;;;;;24.05;54.42;95755.03;10530949;28;1922;-64
2023/09/13 11:44:42;;;;;;;;;;;;;;;24.06;54.61;95756.63;10515186;28;5299;-65
2023/09/13 11:49:43;;;;;;;;;;;;;;;24.07;54.25;95763.47;10509704;28;1902;-65
2023/09/13 11:54:57;;;;;;;;;;;;;;;24.08;54.54;95762.41;10516571;28;1834;-65
2023/09/13 11:59:57;;;;;;;;;;;;;;;24.10;54.75;95772.69;10528894;28;2024;-64
2023/09/13 12:04:58;;;;;;;;;;;;;;;24.12;54.97;95765.25;10496692;28;1971;-64
2023/09/13 12:09:58;;;;;;;;;;;;;;;24.13;55.18;95745.66;10512306;28;2543;-64
2023/09/13 12:15:00;;;;;;;;;;;;;;;24.14;55.04;95747.19;10533649;28;2029;-63
2023/09/13 12:20:00;;;;;;;;;;;;;;;24.14;54.95;95740.03;10512034;28;1999;-65
2023/09/13 12:25:01;;;;;;;;;;;;;;;24.16;55.20;95731.78;10512976;28;2039;-62
2023/09/13 12:30:05;;;;;;;;;;;;;;;24.14;54.88;95726.81;10512114;28;1874;-64
2023/09/13 12:35:05;;;;;;;;;;;;;;;24.13;55.38;95730.50;10526502;28;1881;-63
2023/09/13 12:40:15;;;;;;;;;;;;;;;24.15;55.08;95738.19;10524674;28;1917;-63
2023/09/13 12:45:15;;;;;;;;;;;;;;;24.16;56.38;95756.41;10516232;28;1764;-63
2023/09/13 12:50:15;;;;;;;;;;;;;;;24.17;57.35;95747.38;10493148;28;1888;-63
2023/09/13 12:55:16;;;;;;;;;;;;;;;24.19;58.15;95745.22;10529064;28;2625;-63
2023/09/13 13:00:16;;;;;;;;;;;;;;;24.21;57.00;95739.66;10518616;28;1901;-65
2023/09/13 13:05:16;;;;;;;;;;;;;;;24.22;57.02;95747.28;10496105;28;1861;-62
2023/09/13 13:10:16;;;;;;;;;;;;;;;24.24;56.64;95758.38;10519222;28;1873;-63
2023/09/13 13:15:17;;;;;;;;;;;;;;;24.27;57.02;95761.50;10497105;28;1910;-62
2023/09/13 13:20:17;;;;;;;;;;;;;;;24.28;56.79;95757.78;10517898;28;1967;-62
2023/09/13 13:25:21;;;;;;;;;;;;;;;24.28;57.00;95755.91;10506398;28;1890;-63
2023/09/13 13:30:21;;;;;;;;;;;;;;;24.29;56.87;95754.06;10516566;28;1939;-65
2023/09/13 13:35:22;;;;;;;;;;;;;;;24.30;56.70;95758.28;10533370;27;1958;-63
2023/09/13 13:40:22;;;;;;;;;;;;;;;24.30;56.85;95755.63;10520654;28;5020;-62
2023/09/13 13:45:22;;;;;;;;;;;;;;;24.33;56.77;95755.03;10518948;28;1881;-61
2023/09/13 13:50:23;;;;;;;;;;;;;;;24.33;57.21;95760.31;10522526;28;1823;-66
2023/09/13 13:55:23;;;;;;;;;;;;;;;24.33;56.82;95757.66;10531338;28;1969;-64
2023/09/13 14:00:23;;;;;;;;;;;;;;;24.33;56.92;95755.03;10532951;27;1978;-63
2023/09/13 14:05:23;;;;;;;;;;;;;;;24.33;56.81;95749.72;10520140;28;1985;-65
2023/09/13 14:10:24;;;;;;;;;;;;;;;24.33;56.73;95753.16;10519884;28;1828;-66
2023/09/13 14:15:25;;;;;;;;;;;;;;;24.34;56.75;95746.00;10515059;28;1963;-66
2023/09/13 14:20:25;;;;;;;;;;;;;;;24.33;56.83;95739.91;10535711;27;1917;-64
2023/09/13 14:25:25;;;;;;;;;;;;;;;24.33;56.75;95747.06;10511521;28;2783;-65
2023/09/13 14:30:26;;;;;;;;;;;;;;;24.32;56.54;95753.47;10521232;28;1881;-66
2023/09/13 14:35:26;;;;;;;;;;;;;;;24.30;56.96;95758.28;10515843;28;1947;-66
2023/09/13 14:40:27;;;;;;;;;;;;;;;24.30;57.74;95771.53;10505570;28;5119;-66
2023/09/13 14:45:27;;;;;;;;;;;;;;;24.29;57.56;95762.00;10535064;28;1883;-66
2023/09/13 14:50:27;;;;;;;;;;;;;;;24.23;57.07;95759.44;10506299;28;1883;-66
2023/09/13 14:55:27;;;;;;;;;;;;;;;24.22;58.45;95765.03;10504000;28;1863;-66
2023/09/13 15:00:28;;;;;;;;;;;;;;;24.21;59.55;95761.59;10518617;28;1910;-66
2023/09/13 15:05:28;;;;;;;;;;;;;;;24.22;59.75;95760.53;10497379;28;2035;-65
2023/09/13 15:10:28;;;;;;;;;;;;;;;24.23;60.28;95767.38;10496708;28;2673;-65
2023/09/13 15:15:28;;;;;;;;;;;;;;;24.23;59.96;95764.72;10498600;28;1894;-63
2023/09/13 15:20:29;;;;;;;;;;;;;;;24.19;60.02;95770.94;10515413;28;2028;-63
2023/09/13 15:25:29;;;;;;;;;;;;;;;24.10;61.17;95784.09;10519148;28;1912;-64
2023/09/13 15:30:29;;;;;;;;;;;;;;;24.09;61.96;95782.50;10505246;28;1811;-63
2023/09/13 15:35:30;;;;;;;;;;;;;;;24.06;61.09;95788.41;10506983;28;1769;-66
2023/09/13 15:40:30;;;;;;;;;;;;;;;24.01;61.61;95780.53;10497518;28;4720;-65
2023/09/13 15:45:32;;;;;;;;;;;;;;;23.99;61.76;95781.88;10500569;28;1842;-65
2023/09/13 15:50:32;;;;;;;;;;;;;;;23.95;61.01;95781.69;10513828;28;1862;-64
2023/09/13 15:55:36;;;;;;;;;;;;;;;23.92;61.93;95781.50;10493957;28;2633;-66
2023/09/13 16:00:36;;;;;;;;;;;;;;;23.89;62.15;95776.78;10497160;28;1913;-66
2023/09/13 16:05:36;;;;;;;;;;;;;;;23.92;61.84;95782.31;10509861;28;1937;-65
2023/09/13 16:10:37;;;;;;;;;;;;;;;23.92;62.43;95792.88;10511870;28;1905;-64
2023/09/13 16:15:37;;;;;;;;;;;;;;;24.01;62.19;95791.09;10513648;28;2135;-66
2023/09/13 16:20:38;;;;;;;;;;;;;;;24.19;62.49;95798.19;10531824;28;1978;-67
2023/09/13 16:25:38;;;;;;;;;;;;;;;24.31;62.08;95796.91;10532505;28;1894;-64
2023/09/13 16:30:39;;;;;;;;;;;;;;;24.43;61.56;95789.25;10495884;28;1909;-65
2023/09/13 16:35:39;;;;;;;;;;;;;;;24.48;60.57;95799.75;10514937;28;1822;-65
2023/09/13 16:40:39;;;;;;;;;;;;;;;24.52;59.91;95800.72;10521295;28;4583;-63
2023/09/13 16:45:40;;;;;;;;;;;;;;;24.55;60.20;95789.53;10513737;28;1899;-67
2023/09/13 16:50:40;;;;;;;;;;;;;;;24.59;60.08;95793.94;10537839;27;1836;-65
2023/09/13 16:55:41;;;;;;;;;;;;;;;24.61;59.54;95796.28;10533875;27;1922;-63
2023/09/13 17:00:42;;;;;;;;;;;;;;;24.60;58.94;95808.78;10508243;28;1985;-63
2023/09/13 17:05:43;;;;;;;;;;;;;;;24.59;59.03;95817.00;10508711;28;1394;-64
2023/09/13 17:10:43;;;;;;;;;;;;;;;24.65;58.97;95815.81;10531729;28;1652;-64
2023/09/13 17:15:43;;;;;;;;;;;;;;;24.60;58.35;95818.56;10535582;28;1495;-65
2023/09/13 17:20:44;;;;;;;;;;;;;;;24.61;57.79;95812.19;10521093;28;1969;-64
2023/09/13 17:25:44;;;;;;;;;;;;;;;24.57;58.12;95808.56;10530313;28;2879;-65
2023/09/13 17:30:44;;;;;;;;;;;;;;;24.60;57.69;95803.47;10529176;28;1471;-64
2023/09/13 17:35:45;;;;;;;;;;;;;;;24.56;57.70;95807.00;10488994;28;1493;-65
2023/09/13 17:40:45;;;;;;;;;;;;;;;24.54;57.15;95811.81;10540899;28;1917;-65
2023/09/13 17:45:45;;;;;;;;;;;;;;;24.52;57.14;95816.63;10545009;27;1857;-65
2023/09/13 17:50:46;;;;;;;;;;;;;;;24.46;56.85;95817.81;10508862;28;1467;-65
2023/09/13 17:55:46;;;;;;;;;;;;;;;24.39;57.12;95834.09;10524734;28;1750;-65
2023/09/13 18:00:47;;;;;;;;;;;;;;;24.42;57.04;95843.34;10529394;28;1905;-64
2023/09/13 18:05:47;;;;;;;;;;;;;;;24.43;56.61;95850.97;10510245;28;1444;-67
2023/09/13 18:10:50;;;;;;;;;;;;;;;24.41;57.26;95853.16;10508938;28;2754;-65
2023/09/13 18:15:50;;;;;;;;;;;;;;;24.45;56.92;95863.94;10528104;28;1588;-63
2023/09/13 18:20:50;;;;;;;;;;;;;;;24.41;56.69;95860.31;10535885;27;1890;-63
2023/09/13 18:25:50;;;;;;;;;;;;;;;24.44;57.61;95862.38;10492773;28;1652;-63
2023/09/13 18:31:02;;;;;;;;;;;;;;;24.48;57.12;95863.34;10523119;28;1443;-61
2023/09/13 18:36:03;;;;;;;;;;;;;;;24.53;57.56;95863.22;10526750;27;1874;-64
2023/09/13 18:41:04;;;;;;;;;;;;;;;24.55;57.79;95871.69;10515902;28;4682;-63
2023/09/13 18:46:04;;;;;;;;;;;;;;;24.55;58.00;95874.31;10533864;28;1814;-63
2023/09/13 18:51:05;;;;;;;;;;;;;;;24.54;57.28;95870.91;10515663;28;2172;-63
2023/09/13 18:56:05;;;;;;;;;;;;;;;24.51;57.39;95873.34;10532492;28;2811;-63
2023/09/13 19:01:05;;;;;;;;;;;;;;;24.55;57.22;95882.28;10520995;28;1898;-62
2023/09/13 19:06:08;;;;;;;;;;;;;;;24.50;57.48;95887.69;10528091;27;1894;-63
2023/09/13 19:11:08;;;;;;;;;;;;;;;24.54;57.72;95900.06;10515132;28;1837;-63
2023/09/13 19:16:09;;;;;;;;;;;;;;;24.51;57.06;95900.63;10535453;28;2072;-62
2023/09/13 19:21:12;;;;;;;;;;;;;;;24.48;57.28;95901.25;10532576;28;1901;-63
2023/09/13 19:26:12;;;;;;;;;;;;;;;24.48;57.84;95905.75;10532313;28;1920;-63
2023/09/13 19:31:12;;;;;;;;;;;;;;;24.48;57.19;95903.09;10508837;28;1827;-63
2023/09/13 19:36:12;;;;;;;;;;;;;;;24.49;57.02;95913.41;10512576;28;1950;-63
2023/09/13 19:41:15;;;;;;;;;;;;;;;24.47;57.52;95920.06;10498298;28;4970;-63
2023/09/13 19:46:16;;;;;;;;;;;;;;;24.46;56.55;95919.28;10486868;28;2023;-63
2023/09/13 19:51:16;;;;;;;;;;;;;;;24.43;56.90;95929.69;10514001;28;1894;-63
2023/09/13 19:56:16;;;;;;;;;;;;;;;24.44;57.38;95931.28;10532977;28;2134;-63
2023/09/13 20:01:17;;;;;;;;;;;;;;;24.44;56.73;95931.28;10518083;28;1901;-63
2023/09/13 20:06:19;;;;;;;;;;;;;;;24.46;57.34;95934.41;10514893;28;1838;-63
2023/09/13 20:11:20;;;;;;;;;;;;;;;24.44;56.66;95941.88;10491705;28;1899;-63
2023/09/13 20:16:20;;;;;;;;;;;;;;;24.41;56.56;95943.22;10523228;28;1906;-63
2023/09/13 20:21:20;;;;;;;;;;;;;;;24.28;57.36;95953.81;10542725;28;2022;-62
2023/09/13 20:26:21;;;;;;;;;;;;;;;24.16;57.14;95951.63;10520431;28;2868;-63
2023/09/13 20:31:25;;;;;;;;;;;;;;;24.06;57.73;95947.28;10501484;28;1842;-65
2023/09/13 20:36:25;;;;;;;;;;;;;;;23.99;57.51;95956.63;10521660;28;1969;-63
2023/09/13 20:41:25;;;;;;;;;;;;;;;23.93;57.72;95969.19;10541498;27;1981;-62
2023/09/13 20:46:27;;;;;;;;;;;;;;;23.42;57.33;95969.16;10505172;28;2042;-62
2023/09/13 20:51:27;;;;;;;;;;;;;;;22.99;58.04;95972.09;10511103;28;1834;-61
2023/09/13 20:56:28;;;;;;;;;;;;;;;22.79;58.79;95986.34;10511706;28;2113;-63
2023/09/13 21:01:28;;;;;;;;;;;;;;;22.47;59.49;95979.00;10525187;28;2209;-62
2023/09/13 21:06:28;;;;;;;;;;;;;;;22.47;59.42;95984.28;10519889;28;1936;-61
2023/09/13 21:11:28;;;;;;;;;;;;;;;22.24;60.28;95979.72;10524995;28;1897;-64
2023/09/13 21:16:30;;;;;;;;;;;;;;;22.15;60.76;95985.91;10482262;28;2917;-62
2023/09/13 21:21:30;;;;;;;;;;;;;;;22.01;61.15;95980.47;10537140;27;2028;-61
2023/09/13 21:26:30;;;;;;;;;;;;;;;21.97;61.20;95997.16;10524440;28;1829;-62
2023/09/13 21:31:31;;;;;;;;;;;;;;;21.81;61.17;95991.16;10505390;28;1908;-62
2023/09/13 21:36:31;;;;;;;;;;;;;;;22.11;61.53;95985.69;10523215;28;1838;-63
2023/09/13 21:41:31;;;;;;;;;;;;;;;22.33;61.59;95995.78;10518560;28;2048;-63
2023/09/13 21:46:31;;;;;;;;;;;;;;;22.46;61.92;96000.41;10523011;28;1830;-63
2023/09/13 21:51:32;;;;;;;;;;;;;;;22.55;62.04;96002.16;10514561;28;1897;-63
2023/09/13 21:56:33;;;;;;;;;;;;;;;22.70;61.66;96001.25;10532843;28;2067;-62
2023/09/13 22:01:33;;;;;;;;;;;;;;;22.72;62.14;95999.09;10509086;28;2918;-63
2023/09/13 22:06:33;;;;;;;;;;;;;;;22.81;61.80;95991.34;10547087;27;1805;-63
2023/09/13 22:11:34;;;;;;;;;;;;;;;22.86;61.98;96002.63;10507678;28;1946;-64
2023/09/13 22:16:34;;;;;;;;;;;;;;;22.90;61.91;95998.38;10524878;28;1901;-63
2023/09/13 22:21:34;;;;;;;;;;;;;;;22.95;62.02;96005.44;10505037;28;2045;-63
2023/09/13 22:26:38;;;;;;;;;;;;;;;22.98;61.64;95992.44;10485382;28;1830;-63
2023/09/13 22:31:39;;;;;;;;;;;;;;;23.02;61.60;96009.31;10509979;28;1877;-63
2023/09/13 22:36:39;;;;;;;;;;;;;;;23.04;61.96;96009.81;10517029;28;1834;-63
2023/09/13 22:41:40;;;;;;;;;;;;;;;23.05;61.46;96016.69;10517057;28;4669;-62
2023/09/13 22:46:40;;;;;;;;;;;;;;;23.08;61.75;96010.06;10510248;28;2864;-63
2023/09/13 22:51:40;;;;;;;;;;;;;;;23.10;61.85;96013.22;10536152;28;2095;-63
2023/09/13 22:56:41;;;;;;;;;;;;;;;23.11;61.15;96012.13;10513631;28;1865;-63
2023/09/13 23:01:41;;;;;;;;;;;;;;;23.13;61.55;96012.63;10516533;28;2020;-63
2023/09/13 23:06:42;;;;;;;;;;;;;;;23.13;61.40;96010.78;10494549;28;2031;-63
2023/09/13 23:11:42;;;;;;;;;;;;;;;23.13;61.38;96013.44;10492213;28;1885;-63
2023/09/13 23:16:43;;;;;;;;;;;;;;;23.15;61.40;96013.94;10513920;28;1994;-63
2023/09/13 23:21:43;;;;;;;;;;;;;;;23.16;61.05;96006.78;10532250;27;1981;-63
2023/09/13 23:26:44;;;;;;;;;;;;;;;23.17;61.83;96005.72;10518612;28;1877;-63
2023/09/13 23:31:44;;;;;;;;;;;;;;;23.18;61.86;96005.44;10496450;28;2792;-63
2023/09/13 23:36:45;;;;;;;;;;;;;;;23.20;61.36;96013.09;10497441;28;1896;-62
2023/09/13 23:41:45;;;;;;;;;;;;;;;23.19;61.48;96016.78;10521138;28;4641;-62
2023/09/13 23:46:45;;;;;;;;;;;;;;;23.19;61.43;96017.59;10516118;28;2033;-62
2023/09/13 23:51:46;;;;;;;;;;;;;;;23.21;61.45;96010.16;10511372;28;1823;-63
2023/09/13 23:56:46;;;;;;;;;;;;;;;23.20;61.04;96005.16;10481132;28;1888;-62
